Salisbury Ocean City Wicomico Regional Airport Salisbury US
ICAO: KSBY
IATA: SBY
Category: Medium
Scheduled Services: Yes

Elevation: 52 ft
TransAlt. 18000 ft.

Airport Communications:
PATUXENT APP/DEP:127.95
ASOS:118.325
CLNC DEL:123.775
CTAF:119.425
GND:123.775
LEESBURG RDO:122.2
TWR:119.425
UNICOM:122.95

KSBY Zoom In..

If you have problems with the map follow the link
https://www.worldairports.se/pages/airport.php?
ICAO=KSBY

Runways:

(A) RW 05 length 5000 ft width 100 ft
---- / hdg 49

(B) RW 14 length 6400 ft width 100 ft
---- / hdg 139

(C) RW 23 length 5000 ft width 100 ft
---- / hdg 229

(D) RW 32 length 6400 ft width 100 ft
ILS 108.70 / hdg 319

Location; KSBY
Day. 11 / Time. 13.07 Zulu
* Altimeter: 30.33
* Temperature: 01° c. 33.8°f.
* Wind from: 300° Speed 06 kn.
Dewpoint: -01° c.
Visibility: 4 Statute Miles.
Clouds: Scattered 800 ft.
Clouds: Broken 6500 ft.
Clouds: Overcast 8000 ft.
Conditions: Mist.

KSBY 111307Z 30006KT 4SM BR SCT008 BKN065 OVC080 01/M01 A3033 RMK AO2 T00111006


Wind From 300°
Speed 06 kn.

 
 
jpsmedia worldairports.se 2019   terms of use